createdAt,value
2017-01-10T00:00:04.914Z,42.57
2017-01-10T00:00:45.503Z,42.57
2017-01-10T00:01:26.080Z,42.47
2017-01-10T00:02:06.758Z,42.77
2017-01-10T00:02:47.353Z,43.24
2017-01-10T00:03:27.983Z,42.57
2017-01-10T00:04:08.648Z,42.57
2017-01-10T00:04:49.278Z,42.57
2017-01-10T00:05:29.884Z,42.57
2017-01-10T00:06:10.602Z,42.57
2017-01-10T00:06:51.297Z,42.67
2017-01-10T00:07:31.905Z,42.47
2017-01-10T00:08:12.489Z,42.67
2017-01-10T00:08:53.090Z,42.57
2017-01-10T00:09:33.701Z,42.47
2017-01-10T00:10:14.330Z,42.47
2017-01-10T00:10:54.910Z,42.77
2017-01-10T00:11:35.530Z,42.69
2017-01-10T00:12:16.188Z,42.47
2017-01-10T00:12:56.769Z,42.57
2017-01-10T00:13:37.390Z,42.57
2017-01-10T00:14:17.967Z,42.67
2017-01-10T00:14:58.561Z,42.57
2017-01-10T00:15:39.219Z,42.67
2017-01-10T00:16:19.801Z,42.67
2017-01-10T00:17:00.407Z,42.57
2017-01-10T00:17:41.154Z,42.47
2017-01-10T00:18:21.783Z,42.67
2017-01-10T00:19:02.366Z,42.67
2017-01-10T00:19:43.046Z,42.77
2017-01-10T00:20:23.660Z,42.57
2017-01-10T00:21:04.253Z,42.47
2017-01-10T00:21:44.877Z,42.38
2017-01-10T00:22:25.462Z,42.38
2017-01-10T00:23:06.151Z,42.29
2017-01-10T00:23:46.772Z,42.29
2017-01-10T00:24:27.355Z,42.38
2017-01-10T00:25:07.938Z,42.19
2017-01-10T00:25:48.592Z,42.1
2017-01-10T00:26:29.170Z,42
2017-01-10T00:27:09.805Z,42
2017-01-10T00:27:50.391Z,42
2017-01-10T00:28:30.976Z,41.71
2017-01-10T00:29:11.639Z,41.8
2017-01-10T00:29:52.215Z,41.9
2017-01-10T00:30:32.850Z,41.8
2017-01-10T00:31:13.437Z,41.8
2017-01-10T00:31:54.024Z,41.71
2017-01-10T00:32:34.691Z,41.71
2017-01-10T00:33:15.394Z,41.61
2017-01-10T00:33:55.976Z,41.61
2017-01-10T00:34:36.617Z,41.52
2017-01-10T00:35:17.252Z,41.52
2017-01-10T00:35:57.829Z,41.61
2017-01-10T00:36:38.440Z,41.52
2017-01-10T00:37:19.063Z,41.42
2017-01-10T00:37:59.674Z,41.52
2017-01-10T00:38:40.327Z,41.61
2017-01-10T00:39:20.988Z,41.52
2017-01-10T00:40:01.582Z,41.42
2017-01-10T00:40:42.188Z,41.61
2017-01-10T00:41:22.778Z,41.61
2017-01-10T00:42:03.366Z,41.52
2017-01-10T00:42:43.955Z,41.8
2017-01-10T00:43:24.537Z,41.8
2017-01-10T00:44:05.187Z,41.8
2017-01-10T00:44:45.781Z,41.8
2017-01-10T00:45:26.377Z,41.71
2017-01-10T00:46:07.035Z,42
2017-01-10T00:46:47.657Z,42.19
2017-01-10T00:47:28.251Z,42.19
2017-01-10T00:48:08.888Z,42.38
2017-01-10T00:48:49.469Z,42.38
2017-01-10T00:49:30.129Z,42.29
2017-01-10T00:50:10.779Z,42.38
2017-01-10T00:50:51.360Z,42.67
2017-01-10T00:51:31.945Z,42.57
2017-01-10T00:52:12.618Z,42.67
2017-01-10T00:52:53.202Z,42.77
2017-01-10T00:53:33.790Z,43.05
2017-01-10T00:54:14.372Z,43.05
2017-01-10T00:54:54.950Z,43.44
2017-01-10T00:55:35.667Z,43.63
2017-01-10T00:56:16.340Z,43.53
2017-01-10T00:56:56.941Z,44.01
2017-01-10T00:57:37.565Z,43.53
2017-01-10T00:58:18.183Z,43.53
2017-01-10T00:58:58.783Z,44.11
2017-01-10T00:59:39.448Z,44.3
2017-01-10T01:00:20.155Z,44.68
2017-01-10T01:01:00.660Z,44.59
2017-01-10T01:01:41.240Z,44.59
2017-01-10T01:02:21.828Z,45.07
2017-01-10T01:03:02.501Z,45.74
2017-01-10T01:03:43.190Z,45.74
2017-01-10T01:04:23.773Z,45.45
2017-01-10T01:05:04.355Z,45.83
2017-01-10T01:05:44.982Z,45.93
2017-01-10T01:06:25.561Z,46.12
2017-01-10T01:07:06.155Z,46.41
2017-01-10T01:07:46.764Z,46.89
2017-01-10T01:08:27.386Z,46.7
2017-01-10T01:09:07.963Z,47.37
2017-01-10T01:09:48.555Z,47.08
2017-01-10T01:10:29.162Z,47.27
2017-01-10T01:11:09.741Z,47.56
2017-01-10T01:11:50.323Z,47.46
2017-01-10T01:12:30.967Z,47.46
2017-01-10T01:13:11.609Z,47.94
2017-01-10T01:13:52.204Z,48.04
2017-01-10T01:14:32.793Z,48.13
2017-01-10T01:15:13.371Z,48.52
2017-01-10T01:15:54.030Z,48.8
2017-01-10T01:16:35.310Z,49
2017-01-10T01:17:16.018Z,48.9
2017-01-10T01:17:56.598Z,49
2017-01-10T01:18:37.173Z,49.19
2017-01-10T01:19:17.808Z,49.19
2017-01-10T01:19:58.403Z,49.19
2017-01-10T01:20:39.000Z,49.38
2017-01-10T01:21:19.645Z,49.48
2017-01-10T01:22:00.266Z,49.48
2017-01-10T01:22:40.862Z,49.67
2017-01-10T01:23:21.512Z,49.86
2017-01-10T01:24:02.593Z,50.05
2017-01-10T01:24:42.665Z,50.34
2017-01-10T01:25:23.328Z,50.63
2017-01-10T01:26:03.909Z,50.24
2017-01-10T01:26:44.495Z,50.34
2017-01-10T01:27:25.078Z,50.15
2017-01-10T01:28:05.664Z,50.05
2017-01-10T01:28:46.314Z,50.43
2017-01-10T01:29:26.897Z,50.73
2017-01-10T01:30:07.483Z,50.82
2017-01-10T01:30:48.071Z,50.82
2017-01-10T01:31:28.651Z,50.92
2017-01-10T01:32:09.303Z,50.92
2017-01-10T01:32:49.946Z,50.92
2017-01-10T01:33:30.535Z,51.01
2017-01-10T01:34:11.216Z,51.01
2017-01-10T01:34:51.896Z,50.92
2017-01-10T01:35:32.478Z,51.01
2017-01-10T01:36:13.134Z,51.68
2017-01-10T01:36:53.737Z,51.49
2017-01-10T01:37:34.315Z,51.49
2017-01-10T01:38:15.436Z,51.49
2017-01-10T01:38:56.095Z,51.59
2017-01-10T01:39:36.769Z,51.49
2017-01-10T01:40:17.344Z,51.49
2017-01-10T01:40:57.978Z,51.4
2017-01-10T01:41:38.620Z,51.49
2017-01-10T01:42:19.202Z,51.49
2017-01-10T01:42:59.851Z,51.68
2017-01-10T01:43:40.474Z,51.78
2017-01-10T01:44:21.055Z,51.68
2017-01-10T01:45:01.713Z,52.16
2017-01-10T01:45:42.352Z,52.07
2017-01-10T01:46:22.946Z,52.07
2017-01-10T01:47:03.551Z,52.55
2017-01-10T01:47:44.161Z,52.36
2017-01-10T01:48:25.766Z,52.26
2017-01-10T01:49:06.346Z,52.45
2017-01-10T01:49:46.917Z,52.55
2017-01-10T01:50:27.590Z,52.74
2017-01-10T01:51:08.307Z,52.45
2017-01-10T01:51:48.883Z,52.55
2017-01-10T01:52:29.519Z,52.26
2017-01-10T01:53:10.200Z,52.45
2017-01-10T01:53:50.783Z,52.45
2017-01-10T01:54:31.413Z,52.36
2017-01-10T01:55:12.052Z,52.36
2017-01-10T01:55:52.628Z,52.45
2017-01-10T01:56:33.322Z,52.74
2017-01-10T01:57:13.925Z,53.12
2017-01-10T01:57:54.503Z,53.03
2017-01-10T01:58:35.092Z,53.12
2017-01-10T01:59:15.666Z,53.22
2017-01-10T01:59:56.265Z,52.93
2017-01-10T02:00:36.929Z,52.81
2017-01-10T02:01:17.507Z,53.03
2017-01-10T02:01:58.091Z,53.31
2017-01-10T02:02:38.669Z,53.31
2017-01-10T02:03:19.250Z,52.83
2017-01-10T02:03:59.889Z,53.12
2017-01-10T02:04:40.476Z,53.03
2017-01-10T02:05:21.101Z,53.31
2017-01-10T02:06:01.681Z,52.83
2017-01-10T02:06:42.267Z,52.64
2017-01-10T02:07:22.903Z,53.31
2017-01-10T02:08:03.507Z,53.22
2017-01-10T02:08:44.084Z,53.31
2017-01-10T02:09:24.665Z,53.22
2017-01-10T02:10:05.239Z,53.22
2017-01-10T02:10:45.836Z,53.41
2017-01-10T02:11:26.489Z,53.03
2017-01-10T02:12:07.070Z,53.5
2017-01-10T02:12:47.676Z,53.58
2017-01-10T02:13:28.255Z,53.6
2017-01-10T02:14:08.837Z,53.48
2017-01-10T02:14:49.497Z,53.31
2017-01-10T02:15:30.148Z,53.22
2017-01-10T02:16:10.669Z,53.6
2017-01-10T02:16:51.260Z,53.19
2017-01-10T02:17:31.838Z,53.7
2017-01-10T02:18:12.418Z,53.6
2017-01-10T02:18:53.068Z,53.79
2017-01-10T02:19:33.650Z,53.5
2017-01-10T02:20:14.237Z,53.7
2017-01-10T02:20:54.938Z,53.77
2017-01-10T02:21:35.473Z,53.7
2017-01-10T02:22:16.058Z,53.89
2017-01-10T02:22:56.632Z,53.79
2017-01-10T02:23:37.256Z,53.79
2017-01-10T02:24:17.837Z,53.86
2017-01-10T02:24:58.417Z,53.86
2017-01-10T02:25:39.051Z,53.96
2017-01-10T02:26:19.738Z,53.96
2017-01-10T02:27:00.269Z,53.96
2017-01-10T02:27:40.850Z,53.89
2017-01-10T02:28:21.426Z,53.89
2017-01-10T02:29:02.004Z,53.6
2017-01-10T02:29:42.664Z,53.86
2017-01-10T02:30:23.239Z,53.79
2017-01-10T02:31:03.830Z,53.86
2017-01-10T02:31:44.435Z,53.89
2017-01-10T02:32:25.056Z,54.08
2017-01-10T02:33:05.640Z,53.99
2017-01-10T02:33:46.222Z,53.86
2017-01-10T02:34:26.889Z,54.08
2017-01-10T02:35:07.576Z,53.96
2017-01-10T02:35:48.159Z,54.17
2017-01-10T02:36:28.761Z,54.08
2017-01-10T02:37:09.342Z,53.99
2017-01-10T02:37:49.920Z,54.34
2017-01-10T02:38:30.505Z,54.15
2017-01-10T02:39:11.084Z,54.05
2017-01-10T02:39:51.755Z,54.24
2017-01-10T02:40:32.333Z,54.44
2017-01-10T02:41:12.911Z,54.17
2017-01-10T02:41:53.490Z,53.99
2017-01-10T02:42:34.073Z,54.17
2017-01-10T02:43:14.654Z,54.24
2017-01-10T02:43:55.300Z,54.46
2017-01-10T02:44:35.882Z,54.37
2017-01-10T02:45:16.499Z,54.17
2017-01-10T02:45:57.098Z,54.17
2017-01-10T02:46:37.679Z,54.17
2017-01-10T02:47:18.337Z,54.37
2017-01-10T02:47:58.918Z,54.75
2017-01-10T02:48:39.493Z,54.46
2017-01-10T02:49:20.073Z,54.75
2017-01-10T02:50:00.654Z,54.44
2017-01-10T02:50:41.247Z,55.01
2017-01-10T02:51:21.895Z,55.01
2017-01-10T02:52:02.475Z,54.91
2017-01-10T02:52:43.074Z,54.82
2017-01-10T02:53:23.653Z,54.91
2017-01-10T02:54:04.230Z,54.72
2017-01-10T02:54:44.874Z,54.82
2017-01-10T02:55:25.458Z,55.11
2017-01-10T02:56:06.089Z,54.91
2017-01-10T02:56:46.725Z,54.72
2017-01-10T02:57:27.311Z,54.91
2017-01-10T02:58:08.007Z,54.72
2017-01-10T02:58:48.594Z,54.82
2017-01-10T02:59:29.176Z,54.72
2017-01-10T03:00:09.846Z,54.75
2017-01-10T03:00:50.494Z,54.85
2017-01-10T03:01:31.080Z,54.72
2017-01-10T03:02:11.663Z,54.72
2017-01-10T03:02:52.293Z,54.82
2017-01-10T03:03:32.892Z,55.01
2017-01-10T03:04:13.497Z,54.82
2017-01-10T03:04:54.208Z,54.72
2017-01-10T03:05:34.673Z,54.72
2017-01-10T03:06:15.262Z,54.82
2017-01-10T03:06:55.848Z,55.11
2017-01-10T03:07:36.442Z,55.13
2017-01-10T03:08:17.040Z,54.94
2017-01-10T03:08:57.625Z,55.04
2017-01-10T03:09:38.293Z,54.82
2017-01-10T03:10:18.923Z,54.63
2017-01-10T03:10:59.529Z,54.72
2017-01-10T03:11:40.108Z,55.01
2017-01-10T03:12:20.693Z,54.66
2017-01-10T03:13:01.274Z,54.63
2017-01-10T03:13:41.918Z,54.75
2017-01-10T03:14:22.496Z,55.01
2017-01-10T03:15:03.083Z,55.01
2017-01-10T03:15:43.669Z,54.82
2017-01-10T03:16:24.250Z,54.82
2017-01-10T03:17:04.842Z,54.82
2017-01-10T03:17:45.425Z,54.72
2017-01-10T03:18:26.069Z,55.01
2017-01-10T03:19:06.663Z,55.13
2017-01-10T03:19:47.245Z,55.23
2017-01-10T03:20:27.921Z,55.11
2017-01-10T03:21:08.556Z,54.72
2017-01-10T03:21:49.132Z,54.72
2017-01-10T03:22:29.711Z,54.82
2017-01-10T03:23:10.291Z,55.01
2017-01-10T03:23:50.988Z,55.04
2017-01-10T03:24:31.608Z,54.85
2017-01-10T03:25:12.193Z,55.23
2017-01-10T03:25:52.768Z,55.13
2017-01-10T03:26:33.349Z,54.75
2017-01-10T03:27:13.932Z,54.82
2017-01-10T03:27:54.547Z,55.01
2017-01-10T03:28:35.128Z,54.82
2017-01-10T03:29:15.756Z,55.01
2017-01-10T03:29:56.347Z,55.01
2017-01-10T03:30:36.926Z,54.82
2017-01-10T03:31:17.582Z,55.01
2017-01-10T03:31:58.169Z,54.72
2017-01-10T03:32:38.745Z,54.63
2017-01-10T03:33:19.321Z,54.82
2017-01-10T03:33:59.898Z,54.91
2017-01-10T03:34:40.478Z,54.82
2017-01-10T03:35:21.157Z,55.58
2017-01-10T03:36:01.741Z,55.3
2017-01-10T03:36:42.331Z,55.4
2017-01-10T03:37:22.908Z,55.21
2017-01-10T03:38:03.488Z,55.49
2017-01-10T03:38:44.136Z,55.21
2017-01-10T03:39:24.712Z,54.82
2017-01-10T03:40:05.332Z,54.94
2017-01-10T03:40:45.921Z,54.91
2017-01-10T03:41:26.500Z,54.91
2017-01-10T03:42:07.171Z,54.82
2017-01-10T03:42:47.744Z,55.01
2017-01-10T03:43:28.321Z,54.82
2017-01-10T03:44:09.483Z,54.82
2017-01-10T03:44:50.102Z,54.91
2017-01-10T03:45:30.683Z,55.11
2017-01-10T03:46:11.263Z,55.4
2017-01-10T03:46:51.936Z,55.3
2017-01-10T03:47:32.543Z,55.49
2017-01-10T03:48:13.121Z,55.49
2017-01-10T03:48:53.809Z,55.4
2017-01-10T03:49:34.421Z,55.49
2017-01-10T03:50:15.016Z,55.4
2017-01-10T03:50:55.596Z,55.49
2017-01-10T03:51:36.177Z,54.91
2017-01-10T03:52:16.875Z,54.91
2017-01-10T03:52:57.495Z,55.04
2017-01-10T03:53:38.079Z,54.85
2017-01-10T03:54:18.698Z,55.58
2017-01-10T03:54:59.372Z,55.21
2017-01-10T03:55:39.959Z,55.58
2017-01-10T03:56:20.571Z,55.11
2017-01-10T03:57:01.154Z,55.49
2017-01-10T03:57:41.737Z,55.11
2017-01-10T03:58:22.414Z,55.13
2017-01-10T03:59:03.015Z,55.58
2017-01-10T03:59:43.612Z,55.49
2017-01-10T04:00:24.295Z,54.94
2017-01-10T04:01:04.881Z,55.04
2017-01-10T04:01:45.510Z,55.04
2017-01-10T04:02:26.093Z,55.11
2017-01-10T04:03:06.675Z,55.62
2017-01-10T04:03:47.256Z,55.4
2017-01-10T04:04:27.903Z,55.3
2017-01-10T04:05:08.482Z,54.82
2017-01-10T04:05:49.067Z,55.01
2017-01-10T04:06:29.658Z,55.3
2017-01-10T04:07:10.310Z,55.11
2017-01-10T04:07:51.034Z,55.4
2017-01-10T04:08:31.670Z,55.42
2017-01-10T04:09:12.313Z,55.01
2017-01-10T04:09:52.917Z,55.23
2017-01-10T04:10:33.500Z,55.49
2017-01-10T04:11:14.100Z,55.21
2017-01-10T04:11:54.686Z,55.49
2017-01-10T04:12:35.262Z,55.49
2017-01-10T04:13:15.923Z,55.68
2017-01-10T04:13:56.508Z,55.49
2017-01-10T04:14:37.086Z,55.49
2017-01-10T04:15:17.665Z,55.3
2017-01-10T04:15:58.244Z,55.4
2017-01-10T04:16:38.826Z,55.68
2017-01-10T04:17:19.492Z,55.3
2017-01-10T04:18:00.069Z,55.3
2017-01-10T04:18:40.663Z,55.97
2017-01-10T04:19:21.236Z,55.58
2017-01-10T04:20:01.818Z,55.3
2017-01-10T04:20:42.470Z,55.68
2017-01-10T04:21:23.071Z,56.07
2017-01-10T04:22:03.675Z,55.97
2017-01-10T04:22:44.345Z,56.07
2017-01-10T04:23:24.925Z,55.58
2017-01-10T04:24:05.629Z,55.87
2017-01-10T04:24:46.240Z,55.87
2017-01-10T04:25:26.820Z,56.16
2017-01-10T04:26:07.521Z,55.97
2017-01-10T04:26:48.140Z,56.26
2017-01-10T04:27:28.729Z,55.87
2017-01-10T04:28:09.309Z,55.97
2017-01-10T04:28:49.942Z,55.87
2017-01-10T04:29:30.518Z,55.97
2017-01-10T04:30:11.104Z,55.87
2017-01-10T04:30:51.697Z,56.26
2017-01-10T04:31:32.262Z,56.16
2017-01-10T04:32:12.853Z,55.97
2017-01-10T04:32:53.429Z,56.16
2017-01-10T04:33:34.066Z,55.87
2017-01-10T04:34:14.678Z,55.97
2017-01-10T04:34:55.267Z,56.16
2017-01-10T04:35:35.939Z,56.16
2017-01-10T04:36:16.554Z,56.07
2017-01-10T04:36:57.151Z,55.87
2017-01-10T04:37:37.817Z,56.07
2017-01-10T04:38:18.399Z,55.97
2017-01-10T04:38:59.049Z,56.16
2017-01-10T04:39:39.754Z,56.16
2017-01-10T04:40:20.417Z,56.45
2017-01-10T04:41:00.941Z,56.45
2017-01-10T04:41:41.549Z,56.35
2017-01-10T04:42:22.125Z,56.45
2017-01-10T04:43:02.704Z,55.78
2017-01-10T04:43:43.344Z,56.35
2017-01-10T04:44:23.921Z,56.07
2017-01-10T04:45:04.520Z,56.16
2017-01-10T04:45:45.101Z,56.35
2017-01-10T04:46:25.699Z,56.26
2017-01-10T04:47:06.289Z,55.87
2017-01-10T04:47:46.864Z,55.97
2017-01-10T04:48:27.531Z,56.07
2017-01-10T04:49:08.137Z,56.07
2017-01-10T04:49:48.717Z,56.26
2017-01-10T04:50:29.303Z,56.07
2017-01-10T04:51:09.909Z,56.16
2017-01-10T04:51:50.560Z,56.16
2017-01-10T04:52:31.148Z,56.16
2017-01-10T04:53:11.723Z,56.16
2017-01-10T04:53:52.367Z,56.35
2017-01-10T04:54:33.021Z,55.87
2017-01-10T04:55:13.609Z,56.26
2017-01-10T04:55:54.200Z,56.07
2017-01-10T04:56:34.777Z,56.16
2017-01-10T04:57:15.357Z,56.07
2017-01-10T04:57:56.001Z,55.97
2017-01-10T04:58:36.581Z,56.26
2017-01-10T04:59:17.180Z,55.87
2017-01-10T04:59:57.796Z,56.54
2017-01-10T05:00:38.381Z,56.16
2017-01-10T05:01:19.059Z,56.35
2017-01-10T05:01:59.687Z,56.35
2017-01-10T05:02:40.270Z,55.97
2017-01-10T05:03:20.935Z,55.97
2017-01-10T05:04:01.526Z,56.07
2017-01-10T05:04:42.105Z,56.07
2017-01-10T05:05:22.788Z,55.87
2017-01-10T05:06:03.417Z,56.16
2017-01-10T05:06:44.011Z,56.07
2017-01-10T05:07:24.682Z,56.35
2017-01-10T05:08:05.344Z,56.45
2017-01-10T05:08:45.938Z,56.35
2017-01-10T05:09:26.561Z,56.35
2017-01-10T05:10:07.143Z,56.26
2017-01-10T05:10:47.785Z,56.35
2017-01-10T05:11:28.366Z,56.35
2017-01-10T05:12:08.947Z,56.35
2017-01-10T05:12:49.575Z,56.35
2017-01-10T05:13:30.293Z,56.35
2017-01-10T05:14:10.872Z,56.35
2017-01-10T05:14:51.490Z,56.54
2017-01-10T05:15:32.073Z,56.35
2017-01-10T05:16:12.649Z,56.16
2017-01-10T05:16:53.341Z,56.16
2017-01-10T05:17:33.962Z,56.07
2017-01-10T05:18:14.538Z,56.35
2017-01-10T05:18:55.121Z,56.26
2017-01-10T05:19:35.706Z,56.35
2017-01-10T05:20:16.291Z,56.26
2017-01-10T05:20:56.931Z,56.16
2017-01-10T05:21:37.508Z,56.45
2017-01-10T05:22:18.122Z,56.45
2017-01-10T05:22:58.701Z,56.35
2017-01-10T05:23:39.278Z,56.16
2017-01-10T05:24:19.957Z,56.35
2017-01-10T05:25:00.536Z,56.16
2017-01-10T05:25:41.168Z,56.16
2017-01-10T05:26:21.818Z,56.35
2017-01-10T05:27:02.398Z,56.16
2017-01-10T05:27:43.110Z,56.35
2017-01-10T05:28:23.690Z,56.35
2017-01-10T05:29:04.271Z,56.35
2017-01-10T05:29:44.894Z,55.87
2017-01-10T05:30:25.500Z,56.35
2017-01-10T05:31:06.080Z,56.26
2017-01-10T05:31:46.663Z,56.45
2017-01-10T05:32:27.248Z,56.35
2017-01-10T05:33:07.831Z,55.97
2017-01-10T05:33:48.421Z,55.87
2017-01-10T05:34:28.997Z,55.97
2017-01-10T05:35:09.632Z,56.16
2017-01-10T05:35:50.243Z,56.54
2017-01-10T05:36:30.830Z,55.97
2017-01-10T05:37:11.503Z,56.16
2017-01-10T05:37:52.113Z,56.35
2017-01-10T05:38:32.713Z,56.35
2017-01-10T05:39:13.385Z,56.16
2017-01-10T05:39:54.007Z,56.16
2017-01-10T05:40:34.619Z,56.35
2017-01-10T05:41:15.278Z,56.26
2017-01-10T05:41:55.857Z,56.45
2017-01-10T05:42:36.437Z,56.16
2017-01-10T05:43:17.103Z,56.07
2017-01-10T05:43:57.683Z,56.54
2017-01-10T05:44:38.353Z,56.45
2017-01-10T05:45:19.011Z,56.54
2017-01-10T05:45:59.590Z,55.87
2017-01-10T05:46:40.245Z,55.97
2017-01-10T05:47:20.935Z,55.97
2017-01-10T05:48:01.522Z,56.54
2017-01-10T05:48:42.143Z,55.87
2017-01-10T05:49:22.719Z,55.87
2017-01-10T05:50:03.301Z,55.87
2017-01-10T05:50:43.943Z,55.97
2017-01-10T05:51:24.587Z,56.16
2017-01-10T05:52:05.126Z,56.54
2017-01-10T05:52:45.712Z,55.78
2017-01-10T05:53:26.288Z,55.97
2017-01-10T05:54:06.867Z,55.87
2017-01-10T05:54:47.486Z,56.54
2017-01-10T05:55:28.097Z,56.35
2017-01-10T05:56:08.746Z,56.35
2017-01-10T05:56:49.416Z,56.45
2017-01-10T05:57:30.013Z,56.54
2017-01-10T05:58:10.667Z,55.97
2017-01-10T05:58:51.330Z,56.07
2017-01-10T05:59:31.933Z,56.07
2017-01-10T06:00:12.577Z,56.07
2017-01-10T06:00:53.242Z,56.07
2017-01-10T06:01:33.732Z,56.54
2017-01-10T06:02:14.316Z,56.16
2017-01-10T06:02:54.897Z,56.07
2017-01-10T06:03:35.558Z,56.07
2017-01-10T06:04:16.140Z,56.07
2017-01-10T06:04:56.725Z,56.16
2017-01-10T06:05:37.368Z,55.97
2017-01-10T06:06:18.007Z,56.26
2017-01-10T06:06:58.599Z,56.07
2017-01-10T06:07:39.193Z,56.16
2017-01-10T06:08:19.777Z,55.97
2017-01-10T06:09:00.354Z,55.97
2017-01-10T06:09:41.039Z,55.87
2017-01-10T06:10:21.624Z,56.07
2017-01-10T06:11:02.216Z,56.35
2017-01-10T06:11:42.798Z,56.35
2017-01-10T06:12:23.387Z,56.16
2017-01-10T06:13:04.018Z,56.35
2017-01-10T06:13:44.587Z,56.35
2017-01-10T06:14:25.221Z,56.35
2017-01-10T06:15:05.809Z,56.35
2017-01-10T06:15:46.384Z,55.97
2017-01-10T06:16:27.029Z,56.07
2017-01-10T06:17:07.632Z,55.97
2017-01-10T06:17:48.208Z,55.78
2017-01-10T06:18:28.854Z,56.07
2017-01-10T06:19:09.509Z,55.87
2017-01-10T06:19:50.111Z,55.78
2017-01-10T06:20:30.714Z,56.16
2017-01-10T06:21:11.300Z,55.68
2017-01-10T06:21:51.908Z,55.68
2017-01-10T06:22:32.577Z,56.07
2017-01-10T06:23:13.157Z,56.26
2017-01-10T06:23:53.786Z,56.45
2017-01-10T06:24:34.380Z,56.26
2017-01-10T06:25:14.961Z,56.07
2017-01-10T06:25:55.616Z,56.35
2017-01-10T06:26:36.224Z,56.45
2017-01-10T06:27:16.803Z,56.07
2017-01-10T06:27:57.454Z,55.97
2017-01-10T06:28:38.036Z,56.07
2017-01-10T06:29:18.649Z,56.26
2017-01-10T06:29:59.252Z,56.35
2017-01-10T06:30:39.830Z,56.07
2017-01-10T06:31:20.406Z,56.07
2017-01-10T06:32:01.050Z,55.87
2017-01-10T06:32:41.636Z,56.07
2017-01-10T06:33:22.220Z,55.97
2017-01-10T06:34:02.803Z,55.97
2017-01-10T06:34:43.401Z,56.26
2017-01-10T06:35:24.084Z,56.26
2017-01-10T06:36:04.669Z,55.97
2017-01-10T06:36:45.296Z,56.26
2017-01-10T06:37:25.873Z,56.07
2017-01-10T06:38:06.459Z,56.07
2017-01-10T06:38:47.131Z,55.97
2017-01-10T06:39:27.737Z,56.45
2017-01-10T06:40:08.311Z,56.07
2017-01-10T06:40:48.892Z,56.07
2017-01-10T06:41:29.480Z,56.35
2017-01-10T06:42:10.095Z,56.07
2017-01-10T06:42:50.785Z,56.07
2017-01-10T06:43:31.368Z,56.16
2017-01-10T06:44:12.067Z,56.26
2017-01-10T06:44:52.672Z,56.26
2017-01-10T06:45:33.253Z,55.97
2017-01-10T06:46:13.832Z,56.35
2017-01-10T06:46:54.416Z,56.07
2017-01-10T06:47:34.998Z,55.97
2017-01-10T06:48:15.623Z,56.35
2017-01-10T06:48:56.208Z,56.07
2017-01-10T06:49:36.830Z,56.07
2017-01-10T06:50:17.484Z,55.87
2017-01-10T06:50:58.073Z,55.87
2017-01-10T06:51:38.763Z,55.68
2017-01-10T06:52:19.347Z,55.97
2017-01-10T06:52:59.927Z,56.16
2017-01-10T06:53:40.596Z,55.87
2017-01-10T06:54:21.242Z,56.26
2017-01-10T06:55:01.826Z,56.35
2017-01-10T06:55:42.408Z,55.97
2017-01-10T06:56:22.992Z,55.97
2017-01-10T06:57:03.569Z,56.16
2017-01-10T06:57:44.172Z,56.16
2017-01-10T06:58:24.749Z,55.97
2017-01-10T06:59:05.354Z,55.87
2017-01-10T06:59:45.998Z,55.78
2017-01-10T07:00:26.578Z,56.07
2017-01-10T07:01:07.232Z,56.07
2017-01-10T07:01:47.833Z,55.97
2017-01-10T07:02:28.417Z,55.97
2017-01-10T07:03:09.045Z,56.07
2017-01-10T07:03:49.691Z,55.68
2017-01-10T07:04:30.266Z,55.49
2017-01-10T07:05:10.866Z,55.68
2017-01-10T07:05:51.445Z,55.97
2017-01-10T07:06:32.110Z,56.16
2017-01-10T07:07:12.798Z,56.16
2017-01-10T07:07:53.377Z,55.97
2017-01-10T07:08:34.012Z,55.68
2017-01-10T07:09:14.702Z,55.97
2017-01-10T07:09:55.281Z,55.87
2017-01-10T07:10:35.859Z,55.97
2017-01-10T07:11:16.447Z,55.97
2017-01-10T07:11:57.029Z,56.16
2017-01-10T07:12:37.709Z,56.07
2017-01-10T07:13:18.287Z,56.07
2017-01-10T07:13:58.867Z,55.97
2017-01-10T07:14:39.523Z,55.97
2017-01-10T07:15:20.110Z,55.97
2017-01-10T07:16:00.767Z,56.26
2017-01-10T07:16:41.429Z,56.35
2017-01-10T07:17:22.010Z,55.97
2017-01-10T07:18:02.620Z,55.68
2017-01-10T07:18:43.196Z,55.87
2017-01-10T07:19:23.772Z,55.78
2017-01-10T07:20:04.354Z,55.68
2017-01-10T07:20:44.943Z,55.97
2017-01-10T07:21:25.629Z,56.16
2017-01-10T07:22:06.244Z,56.26
2017-01-10T07:22:46.831Z,55.87
2017-01-10T07:23:27.499Z,55.97
2017-01-10T07:24:08.117Z,56.26
2017-01-10T07:24:48.697Z,56.35
2017-01-10T07:25:29.285Z,56.26
2017-01-10T07:26:09.931Z,55.97
2017-01-10T07:26:50.504Z,56.35
2017-01-10T07:27:31.126Z,56.07
2017-01-10T07:28:11.751Z,55.97
2017-01-10T07:28:52.351Z,56.54
2017-01-10T07:29:33.028Z,56.26
2017-01-10T07:30:13.625Z,56.26
2017-01-10T07:30:54.223Z,55.87
2017-01-10T07:31:34.809Z,56.07
2017-01-10T07:32:15.389Z,55.97
2017-01-10T07:32:55.965Z,56.07
2017-01-10T07:33:36.624Z,56.45
2017-01-10T07:34:17.205Z,56.16
2017-01-10T07:34:57.815Z,56.35
2017-01-10T07:35:38.464Z,56.45
2017-01-10T07:36:19.023Z,56.35
2017-01-10T07:36:59.599Z,56.07
2017-01-10T07:37:40.177Z,56.07
2017-01-10T07:38:20.800Z,55.97
2017-01-10T07:39:01.383Z,55.78
2017-01-10T07:39:41.957Z,56.26
2017-01-10T07:40:22.615Z,56.07
2017-01-10T07:41:03.257Z,56.26
2017-01-10T07:41:43.846Z,56.07
2017-01-10T07:42:24.426Z,56.07
2017-01-10T07:43:05.002Z,55.97
2017-01-10T07:43:45.688Z,55.78
2017-01-10T07:44:26.964Z,55.97
2017-01-10T07:45:07.583Z,56.16
2017-01-10T07:45:48.251Z,55.58
2017-01-10T07:46:28.835Z,56.26
2017-01-10T07:47:09.466Z,55.68
2017-01-10T07:47:50.045Z,56.16
2017-01-10T07:48:30.629Z,56.26
2017-01-10T07:49:11.279Z,56.26
2017-01-10T07:49:51.907Z,55.97
2017-01-10T07:50:32.501Z,56.16
2017-01-10T07:51:13.081Z,55.97
2017-01-10T07:51:53.670Z,55.97
2017-01-10T07:52:34.265Z,55.87
2017-01-10T07:53:14.938Z,55.87
2017-01-10T07:53:55.529Z,56.26
2017-01-10T07:54:36.128Z,55.97
2017-01-10T07:55:16.710Z,56.26
2017-01-10T07:55:57.298Z,56.16
2017-01-10T07:56:37.914Z,56.26
2017-01-10T07:57:18.502Z,55.87
2017-01-10T07:57:59.140Z,56.07
2017-01-10T07:58:39.780Z,55.97
2017-01-10T07:59:20.360Z,56.26
2017-01-10T08:00:01.036Z,56.35
2017-01-10T08:00:41.643Z,56.26
2017-01-10T08:01:22.222Z,56.35
2017-01-10T08:02:03.696Z,56.26
2017-01-10T08:02:44.281Z,56.26
2017-01-10T08:03:24.885Z,56.35
2017-01-10T08:04:05.557Z,56.26
2017-01-10T08:04:46.142Z,56.07
2017-01-10T08:05:26.768Z,56.26
2017-01-10T08:06:07.415Z,56.45
2017-01-10T08:06:47.990Z,56.26
2017-01-10T08:07:28.645Z,56.26
2017-01-10T08:08:09.231Z,55.97
2017-01-10T08:08:49.826Z,56.07
2017-01-10T08:09:30.456Z,55.97
2017-01-10T08:10:11.086Z,56.07
2017-01-10T08:10:51.690Z,55.97
2017-01-10T08:11:32.353Z,55.97
2017-01-10T08:12:12.935Z,56.26
2017-01-10T08:12:53.559Z,55.87
2017-01-10T08:13:34.150Z,56.16
2017-01-10T08:14:14.727Z,56.07
2017-01-10T08:14:55.304Z,56.45
2017-01-10T08:15:35.971Z,55.97
2017-01-10T08:16:16.549Z,56.16
2017-01-10T08:16:57.131Z,56.07
2017-01-10T08:17:37.801Z,55.97
2017-01-10T08:18:18.353Z,56.16
2017-01-10T08:18:58.938Z,56.26
2017-01-10T08:19:39.517Z,56.07
2017-01-10T08:20:20.132Z,55.97
2017-01-10T08:21:00.762Z,55.97
2017-01-10T08:21:41.346Z,56.07
2017-01-10T08:22:21.948Z,56.16
2017-01-10T08:23:02.588Z,56.35
2017-01-10T08:23:43.179Z,56.07
2017-01-10T08:24:23.758Z,56.54
2017-01-10T08:25:04.336Z,55.78
2017-01-10T08:25:45.022Z,56.54
2017-01-10T08:26:25.654Z,56.45
2017-01-10T08:27:06.236Z,56.16
2017-01-10T08:27:46.822Z,56.16
2017-01-10T08:28:27.399Z,56.16
2017-01-10T08:29:07.976Z,56.45
2017-01-10T08:29:48.602Z,56.26
2017-01-10T08:30:29.181Z,56.45
2017-01-10T08:31:09.842Z,56.35
2017-01-10T08:31:50.417Z,56.54
2017-01-10T08:32:31.007Z,56.35
2017-01-10T08:33:11.650Z,56.26
2017-01-10T08:33:52.290Z,56.16
2017-01-10T08:34:32.879Z,56.16
2017-01-10T08:35:14.279Z,56.74
2017-01-10T08:35:54.860Z,56.74
2017-01-10T08:36:35.461Z,56.45
2017-01-10T08:37:16.052Z,56.64
2017-01-10T08:37:56.634Z,56.35
2017-01-10T08:38:37.324Z,56.07
2017-01-10T08:39:17.979Z,56.35
2017-01-10T08:39:58.570Z,56.54
2017-01-10T08:40:39.209Z,56.16
2017-01-10T08:41:19.829Z,56.07
2017-01-10T08:42:00.405Z,56.16
2017-01-10T08:42:40.986Z,56.54
2017-01-10T08:43:21.565Z,56.35
2017-01-10T08:44:02.246Z,56.83